»·PEaware :: N5205X KPSP-KVCV

N5205X :: KPSP-KVCV

FLIGHT INFORMATION

Flight Status: Arrived
Operator: Privately registered:
United States
More flights under this callsign
Pilot: Martin B. (29991)
Aircraft: CIRRUS SR-22 TURBO
(S22T)
More flights by this aircraft type
Origin: KPSP Palm Springs Intl
United States
Destination: KVCV Socal Logistics
United States
More flights between these airports :: More routes between these airports
Route: CATH1 PSP V386 APLES
File this flight plan on PilotEdge
Remarks:
Altitude:
(Current/Filed)
14,000ft
Speed:
(Current/Filed)
170kts
Departed: 26-Dec-20 02:13 PM
Arrived: 26-Dec-20 02:58 PM
Distance/Time
Traveled:
63nm/0:45
Distance/Time
To Go:
Arrived

Flight Plot

Page will automatically refresh every two minutes.


Map Options




Map Legend


Flown Route
Filed Route
Departure Airport
Arrival Airport
Navaid (VOR, NDB)
Fix

Horizontal Profiles

Position Reports

Time Latitude Longitude Heading Altitude Ground
Speed
26-Dec-20 13:37 33.825782 -116.508336 272 423ft 0kts
26-Dec-20 13:38 33.825782 -116.508336 272 423ft 0kts
26-Dec-20 13:39 33.825782 -116.508336 272 423ft 0kts
26-Dec-20 13:40 33.825782 -116.508336 272 423ft 0kts
26-Dec-20 13:41 33.825782 -116.508336 272 423ft 0kts
26-Dec-20 13:42 33.825782 -116.508336 272 423ft 0kts
26-Dec-20 13:43 33.825782 -116.508336 272 423ft 0kts
26-Dec-20 13:44 33.825782 -116.508336 272 423ft 0kts
26-Dec-20 13:45 33.825782 -116.508336 272 423ft 0kts
26-Dec-20 13:46 33.825782 -116.508336 272 423ft 0kts
26-Dec-20 13:47 33.825782 -116.508336 272 423ft 0kts
26-Dec-20 13:48 33.825782 -116.508336 272 423ft 0kts
26-Dec-20 13:49 33.825782 -116.508336 272 423ft 0kts
26-Dec-20 13:50 33.825782 -116.508336 272 423ft 0kts
26-Dec-20 13:51 33.825782 -116.508336 272 423ft 0kts
26-Dec-20 13:52 33.825782 -116.508336 272 423ft 0kts
26-Dec-20 13:53 33.825782 -116.508336 272 423ft 0kts
26-Dec-20 13:54 33.825782 -116.508336 272 423ft 0kts
26-Dec-20 13:55 33.825782 -116.508336 272 423ft 0kts
26-Dec-20 13:56 33.825782 -116.508336 272 423ft 0kts
26-Dec-20 13:57 33.825782 -116.508336 272 423ft 0kts
26-Dec-20 13:58 33.825782 -116.508336 272 423ft 0kts
26-Dec-20 13:59 33.825782 -116.508336 272 423ft 0kts
26-Dec-20 14:00 33.825782 -116.508336 272 423ft 0kts
26-Dec-20 14:01 33.825782 -116.508336 272 423ft 0kts
26-Dec-20 14:02 33.825782 -116.508336 272 423ft 0kts
26-Dec-20 14:03 33.825782 -116.508336 272 423ft 0kts
26-Dec-20 14:04 33.825782 -116.508336 272 423ft 0kts
26-Dec-20 14:05 33.825782 -116.508336 272 423ft 0kts
26-Dec-20 14:06 33.825697 -116.507865 89 423ft 5kts
26-Dec-20 14:07 33.825392 -116.505885 152 421ft 9kts
26-Dec-20 14:08 33.823239 -116.503700 84 413ft 5kts
26-Dec-20 14:09 33.823253 -116.503546 92 413ft 0kts
26-Dec-20 14:10 33.823253 -116.503546 92 413ft 0kts
26-Dec-20 14:11 33.823410 -116.502907 43 412ft 7kts
26-Dec-20 14:12 33.837962 -116.510829 12 1124ft 96kts
26-Dec-20 14:13 33.843987 -116.479692 98 2827ft 97kts
26-Dec-20 14:14 33.854983 -116.450511 58 4648ft 109kts
26-Dec-20 14:15 33.869964 -116.418527 72 6348ft 116kts
26-Dec-20 14:16 33.903666 -116.401703 0 7210ft 187kts
26-Dec-20 14:17 33.948254 -116.435439 325 7556ft 177kts
26-Dec-20 14:18 33.985834 -116.457706 326 9147ft 136kts
26-Dec-20 14:19 34.019112 -116.475684 325 10371ft 129kts
26-Dec-20 14:20 34.051471 -116.492674 326 11563ft 125kts
26-Dec-20 14:21 34.082660 -116.509065 325 12707ft 123kts
26-Dec-20 14:22 34.110554 -116.529649 303 13780ft 112kts
26-Dec-20 14:23 34.135108 -116.562431 310 13969ft 150kts
26-Dec-20 14:24 34.163865 -116.601238 305 13974ft 158kts
26-Dec-20 14:25 34.192871 -116.642023 305 13964ft 160kts
26-Dec-20 14:26 34.221905 -116.682947 305 13968ft 160kts
26-Dec-20 14:27 34.250913 -116.723900 305 13973ft 160kts
26-Dec-20 14:28 34.280081 -116.764746 307 13957ft 162kts
26-Dec-20 14:29 34.309484 -116.805871 306 13955ft 162kts
26-Dec-20 14:30 34.338750 -116.847342 306 13899ft 159kts
26-Dec-20 14:31 34.363090 -116.883196 303 12498ft 125kts
26-Dec-20 14:32 34.384769 -116.913596 304 11182ft 115kts
26-Dec-20 14:33 34.404813 -116.942283 305 9979ft 104kts
26-Dec-20 14:34 34.422881 -116.968170 306 10010ft 131kts
26-Dec-20 14:35 34.449371 -117.005642 307 9968ft 153kts
26-Dec-20 14:36 34.469330 -117.034677 303 9312ft 80kts
26-Dec-20 14:37 34.482640 -117.053468 305 8814ft 85kts
26-Dec-20 14:38 34.504882 -117.083990 308 8542ft 141kts
26-Dec-20 14:39 34.529082 -117.119522 304 7982ft 115kts
26-Dec-20 14:41 34.553025 -117.145829 356 7989ft 127kts
26-Dec-20 14:42 34.587916 -117.142764 355 7853ft 136kts
26-Dec-20 14:43 34.628900 -117.146069 344 7321ft 155kts
26-Dec-20 14:44 34.667104 -117.158858 330 6648ft 119kts
26-Dec-20 14:45 34.699660 -117.178261 323 6610ft 141kts
26-Dec-20 14:46 34.731434 -117.206928 313 6601ft 142kts
26-Dec-20 14:47 34.757043 -117.241999 304 6595ft 139kts
26-Dec-20 14:48 34.777590 -117.280765 303 6606ft 137kts
26-Dec-20 14:49 34.790495 -117.322736 282 6599ft 132kts
26-Dec-20 14:50 34.781965 -117.360024 209 6589ft 136kts
26-Dec-20 14:51 34.750324 -117.383962 208 5966ft 120kts
26-Dec-20 14:52 34.722384 -117.387923 189 5099ft 95kts
26-Dec-20 14:53 34.694211 -117.387637 186 4610ft 113kts
26-Dec-20 14:54 34.666517 -117.387251 188 4286ft 78kts
26-Dec-20 14:55 34.642589 -117.386448 183 3692ft 93kts
26-Dec-20 14:55 34.621237 -117.386647 187 2892ft 88kts
26-Dec-20 14:57 34.599320 -117.386557 185 2851ft 54kts
26-Dec-20 14:58 34.594481 -117.383579 118 2859ft 18kts
26-Dec-20 14:58 34.591359 -117.379739 136 2868ft 29kts
26-Dec-20 14:59 34.588204 -117.376423 319 2874ft 0kts

Navigation Log

Ident Type
Flight plan parsing failed, navigation log unavailable